sensor_id;sensor_type;location;lat;lon;timestamp;P1;durP1;ratioP1;P2;durP2;ratioP2
34892;SDS011;21106;52.240;20.902;2022-09-04T00:04:09;16.15;;;6.85;;
34892;SDS011;21106;52.240;20.902;2022-09-04T00:09:10;17.48;;;6.95;;
34892;SDS011;21106;52.240;20.902;2022-09-04T00:14:17;15.08;;;6.80;;
34892;SDS011;21106;52.240;20.902;2022-09-04T00:19:24;18.12;;;6.95;;
34892;SDS011;21106;52.240;20.902;2022-09-04T00:29:39;16.30;;;7.85;;
34892;SDS011;21106;52.240;20.902;2022-09-04T00:40:03;13.43;;;7.45;;
34892;SDS011;21106;52.240;20.902;2022-09-04T00:50:26;18.15;;;8.00;;
34892;SDS011;21106;52.240;20.902;2022-09-04T00:55:36;18.52;;;7.95;;
34892;SDS011;21106;52.240;20.902;2022-09-04T01:00:37;20.00;;;7.80;;
34892;SDS011;21106;52.240;20.902;2022-09-04T01:16:33;18.40;;;8.23;;
34892;SDS011;21106;52.240;20.902;2022-09-04T01:42:55;14.03;;;7.85;;
34892;SDS011;21106;52.240;20.902;2022-09-04T01:48:02;18.30;;;7.72;;
34892;SDS011;21106;52.240;20.902;2022-09-04T01:53:19;14.80;;;7.60;;
34892;SDS011;21106;52.240;20.902;2022-09-04T02:14:19;17.67;;;7.67;;
34892;SDS011;21106;52.240;20.902;2022-09-04T02:19:26;16.07;;;8.23;;
34892;SDS011;21106;52.240;20.902;2022-09-04T02:29:42;13.32;;;7.30;;
34892;SDS011;21106;52.240;20.902;2022-09-04T02:34:49;13.40;;;7.72;;
34892;SDS011;21106;52.240;20.902;2022-09-04T02:50:35;14.45;;;7.83;;
34892;SDS011;21106;52.240;20.902;2022-09-04T03:11:35;14.58;;;7.90;;
34892;SDS011;21106;52.240;20.902;2022-09-04T03:27:00;14.73;;;7.80;;
34892;SDS011;21106;52.240;20.902;2022-09-04T03:32:17;17.20;;;7.55;;
34892;SDS011;21106;52.240;20.902;2022-09-04T03:37:29;18.05;;;7.05;;
34892;SDS011;21106;52.240;20.902;2022-09-04T03:53:10;12.40;;;7.37;;
34892;SDS011;21106;52.240;20.902;2022-09-04T04:03:29;16.12;;;7.22;;
34892;SDS011;21106;52.240;20.902;2022-09-04T04:19:04;12.58;;;7.30;;
34892;SDS011;21106;52.240;20.902;2022-09-04T04:24:17;13.22;;;8.03;;
34892;SDS011;21106;52.240;20.902;2022-09-04T04:34:34;12.45;;;6.87;;
34892;SDS011;21106;52.240;20.902;2022-09-04T04:45:00;14.85;;;7.05;;
34892;SDS011;21106;52.240;20.902;2022-09-04T04:50:31;11.10;;;7.08;;
34892;SDS011;21106;52.240;20.902;2022-09-04T04:55:38;13.72;;;8.13;;
34892;SDS011;21106;52.240;20.902;2022-09-04T05:00:48;13.80;;;7.50;;
34892;SDS011;21106;52.240;20.902;2022-09-04T05:12:04;15.30;;;8.73;;
34892;SDS011;21106;52.240;20.902;2022-09-04T05:32:19;12.63;;;7.10;;
34892;SDS011;21106;52.240;20.902;2022-09-04T05:37:27;11.30;;;7.22;;
34892;SDS011;21106;52.240;20.902;2022-09-04T05:58:20;33.05;;;16.62;;
34892;SDS011;21106;52.240;20.902;2022-09-04T06:03:31;21.57;;;10.30;;
34892;SDS011;21106;52.240;20.902;2022-09-04T06:13:48;20.15;;;11.50;;
34892;SDS011;21106;52.240;20.902;2022-09-04T06:24:33;14.30;;;8.73;;
34892;SDS011;21106;52.240;20.902;2022-09-04T06:29:52;13.32;;;7.67;;
34892;SDS011;21106;52.240;20.902;2022-09-04T07:00:48;12.25;;;6.40;;
34892;SDS011;21106;52.240;20.902;2022-09-04T07:26:56;5.15;;;3.65;;
34892;SDS011;21106;52.240;20.902;2022-09-04T07:37:18;6.17;;;3.40;;
34892;SDS011;21106;52.240;20.902;2022-09-04T07:42:30;6.50;;;3.40;;
34892;SDS011;21106;52.240;20.902;2022-09-04T07:47:39;4.55;;;2.98;;
34892;SDS011;21106;52.240;20.902;2022-09-04T08:03:38;6.00;;;3.02;;
34892;SDS011;21106;52.240;20.902;2022-09-04T08:08:55;8.50;;;4.15;;
34892;SDS011;21106;52.240;20.902;2022-09-04T08:24:33;6.78;;;3.42;;
34892;SDS011;21106;52.240;20.902;2022-09-04T08:35:09;6.30;;;3.30;;
34892;SDS011;21106;52.240;20.902;2022-09-04T08:45:46;4.78;;;3.00;;
34892;SDS011;21106;52.240;20.902;2022-09-04T09:01:35;7.08;;;3.45;;
34892;SDS011;21106;52.240;20.902;2022-09-04T09:17:13;8.55;;;3.55;;
34892;SDS011;21106;52.240;20.902;2022-09-04T09:33:12;6.78;;;4.05;;
34892;SDS011;21106;52.240;20.902;2022-09-04T09:43:24;9.53;;;3.47;;
34892;SDS011;21106;52.240;20.902;2022-09-04T10:04:34;9.20;;;4.35;;
34892;SDS011;21106;52.240;20.902;2022-09-04T10:15:05;8.93;;;4.58;;
34892;SDS011;21106;52.240;20.902;2022-09-04T10:35:56;6.83;;;4.33;;
34892;SDS011;21106;52.240;20.902;2022-09-04T11:18:24;7.03;;;4.85;;
34892;SDS011;21106;52.240;20.902;2022-09-04T11:23:47;7.90;;;4.62;;
34892;SDS011;21106;52.240;20.902;2022-09-04T11:28:52;8.08;;;4.50;;
34892;SDS011;21106;52.240;20.902;2022-09-04T11:34:07;5.83;;;3.75;;
34892;SDS011;21106;52.240;20.902;2022-09-04T11:50:46;5.00;;;3.83;;
34892;SDS011;21106;52.240;20.902;2022-09-04T12:00:23;7.10;;;4.10;;
34892;SDS011;21106;52.240;20.902;2022-09-04T12:11:08;7.22;;;4.15;;
34892;SDS011;21106;52.240;20.902;2022-09-04T12:53:16;5.67;;;3.90;;
34892;SDS011;21106;52.240;20.902;2022-09-04T12:58:28;6.22;;;3.67;;
34892;SDS011;21106;52.240;20.902;2022-09-04T13:09:06;12.60;;;4.20;;
34892;SDS011;21106;52.240;20.902;2022-09-04T13:14:33;7.83;;;3.85;;
34892;SDS011;21106;52.240;20.902;2022-09-04T13:19:23;8.20;;;3.75;;
34892;SDS011;21106;52.240;20.902;2022-09-04T13:24:31;12.40;;;3.83;;
34892;SDS011;21106;52.240;20.902;2022-09-04T13:35:12;5.67;;;3.52;;
34892;SDS011;21106;52.240;20.902;2022-09-04T13:45:43;5.25;;;4.00;;
34892;SDS011;21106;52.240;20.902;2022-09-04T13:50:50;8.18;;;3.37;;
34892;SDS011;21106;52.240;20.902;2022-09-04T13:56:03;11.68;;;3.52;;
34892;SDS011;21106;52.240;20.902;2022-09-04T14:01:10;5.65;;;3.55;;
34892;SDS011;21106;52.240;20.902;2022-09-04T14:06:20;6.35;;;3.42;;
34892;SDS011;21106;52.240;20.902;2022-09-04T14:16:34;5.57;;;3.13;;
34892;SDS011;21106;52.240;20.902;2022-09-04T14:21:45;3.65;;;3.12;;
34892;SDS011;21106;52.240;20.902;2022-09-04T14:32:04;9.23;;;3.35;;
34892;SDS011;21106;52.240;20.902;2022-09-04T14:42:20;6.90;;;3.08;;
34892;SDS011;21106;52.240;20.902;2022-09-04T14:57:48;5.22;;;3.17;;
34892;SDS011;21106;52.240;20.902;2022-09-04T15:02:57;5.58;;;3.25;;
34892;SDS011;21106;52.240;20.902;2022-09-04T15:08:02;9.40;;;3.62;;
34892;SDS011;21106;52.240;20.902;2022-09-04T15:23:39;9.80;;;3.37;;
34892;SDS011;21106;52.240;20.902;2022-09-04T15:28:47;5.90;;;2.98;;
34892;SDS011;21106;52.240;20.902;2022-09-04T15:33:58;8.43;;;2.92;;
34892;SDS011;21106;52.240;20.902;2022-09-04T15:39:02;4.58;;;2.87;;
34892;SDS011;21106;52.240;20.902;2022-09-04T15:49:37;4.10;;;2.95;;
34892;SDS011;21106;52.240;20.902;2022-09-04T16:00:02;6.35;;;3.02;;
34892;SDS011;21106;52.240;20.902;2022-09-04T16:10:21;6.90;;;2.80;;
34892;SDS011;21106;52.240;20.902;2022-09-04T16:20:39;10.45;;;4.10;;
34892;SDS011;21106;52.240;20.902;2022-09-04T16:25:45;8.43;;;3.77;;
34892;SDS011;21106;52.240;20.902;2022-09-04T16:30:56;10.45;;;3.58;;
34892;SDS011;21106;52.240;20.902;2022-09-04T16:36:16;10.15;;;2.83;;
34892;SDS011;21106;52.240;20.902;2022-09-04T16:41:22;8.10;;;3.80;;
34892;SDS011;21106;52.240;20.902;2022-09-04T16:46:30;7.42;;;2.87;;
34892;SDS011;21106;52.240;20.902;2022-09-04T16:51:46;6.37;;;2.72;;
34892;SDS011;21106;52.240;20.902;2022-09-04T16:56:54;8.88;;;2.12;;
34892;SDS011;21106;52.240;20.902;2022-09-04T17:02:05;7.53;;;2.47;;
34892;SDS011;21106;52.240;20.902;2022-09-04T17:07:14;7.50;;;2.47;;
34892;SDS011;21106;52.240;20.902;2022-09-04T17:17:34;4.97;;;1.60;;
34892;SDS011;21106;52.240;20.902;2022-09-04T17:33:26;6.00;;;1.87;;
34892;SDS011;21106;52.240;20.902;2022-09-04T17:38:37;4.10;;;1.35;;
34892;SDS011;21106;52.240;20.902;2022-09-04T17:43:46;5.75;;;1.50;;
34892;SDS011;21106;52.240;20.902;2022-09-04T17:48:47;4.60;;;1.30;;
34892;SDS011;21106;52.240;20.902;2022-09-04T17:53:54;2.77;;;1.27;;
34892;SDS011;21106;52.240;20.902;2022-09-04T17:59:14;5.78;;;1.32;;
34892;SDS011;21106;52.240;20.902;2022-09-04T18:25:23;2.62;;;1.32;;
34892;SDS011;21106;52.240;20.902;2022-09-04T18:30:29;5.47;;;1.30;;
34892;SDS011;21106;52.240;20.902;2022-09-04T18:40:48;10.23;;;1.70;;
34892;SDS011;21106;52.240;20.902;2022-09-04T18:45:54;7.47;;;1.62;;
34892;SDS011;21106;52.240;20.902;2022-09-04T18:56:23;6.08;;;1.70;;
34892;SDS011;21106;52.240;20.902;2022-09-04T19:01:37;7.10;;;1.30;;
34892;SDS011;21106;52.240;20.902;2022-09-04T19:12:05;5.35;;;1.75;;
34892;SDS011;21106;52.240;20.902;2022-09-04T19:17:24;4.15;;;1.55;;
34892;SDS011;21106;52.240;20.902;2022-09-04T19:27:41;6.53;;;1.60;;
34892;SDS011;21106;52.240;20.902;2022-09-04T19:38:01;4.95;;;1.87;;
34892;SDS011;21106;52.240;20.902;2022-09-04T19:53:29;5.45;;;2.00;;
34892;SDS011;21106;52.240;20.902;2022-09-04T19:58:37;9.35;;;2.60;;
34892;SDS011;21106;52.240;20.902;2022-09-04T20:03:47;5.08;;;2.25;;
34892;SDS011;21106;52.240;20.902;2022-09-04T20:19:32;7.47;;;2.22;;
34892;SDS011;21106;52.240;20.902;2022-09-04T20:24:41;3.95;;;1.87;;
34892;SDS011;21106;52.240;20.902;2022-09-04T20:29:51;5.05;;;1.90;;
34892;SDS011;21106;52.240;20.902;2022-09-04T20:35:04;3.77;;;2.25;;
34892;SDS011;21106;52.240;20.902;2022-09-04T20:40:30;3.72;;;1.52;;
34892;SDS011;21106;52.240;20.902;2022-09-04T20:50:48;2.80;;;1.75;;
34892;SDS011;21106;52.240;20.902;2022-09-04T20:56:09;7.33;;;2.08;;
34892;SDS011;21106;52.240;20.902;2022-09-04T21:01:16;4.80;;;1.60;;
34892;SDS011;21106;52.240;20.902;2022-09-04T21:06:28;5.93;;;1.70;;
34892;SDS011;21106;52.240;20.902;2022-09-04T21:11:43;2.40;;;1.30;;
34892;SDS011;21106;52.240;20.902;2022-09-04T22:05:27;3.58;;;1.10;;
34892;SDS011;21106;52.240;20.902;2022-09-04T22:15:43;3.12;;;1.07;;
34892;SDS011;21106;52.240;20.902;2022-09-04T22:36:35;2.12;;;0.78;;
34892;SDS011;21106;52.240;20.902;2022-09-04T22:57:26;1.60;;;0.80;;
34892;SDS011;21106;52.240;20.902;2022-09-04T23:02:41;1.80;;;0.80;;
34892;SDS011;21106;52.240;20.902;2022-09-04T23:19:20;1.87;;;0.57;;
34892;SDS011;21106;52.240;20.902;2022-09-04T23:23:57;2.42;;;0.70;;
34892;SDS011;21106;52.240;20.902;2022-09-04T23:49:54;0.80;;;0.47;;
